createdAt,value
2018-04-16T00:00:35.839Z,12.16
2018-04-16T00:01:35.810Z,12.03
2018-04-16T00:02:35.800Z,11.96
2018-04-16T00:03:35.808Z,11.84
2018-04-16T00:04:35.807Z,11.9
2018-04-16T00:05:35.819Z,11.89
2018-04-16T00:06:35.809Z,11.96
2018-04-16T00:07:35.797Z,11.96
2018-04-16T00:09:35.792Z,11.97
2018-04-16T00:10:35.850Z,11.98
2018-04-16T00:11:35.825Z,11.83
2018-04-16T00:12:35.800Z,11.89
2018-04-16T00:13:35.822Z,11.84
2018-04-16T00:14:35.817Z,11.85
2018-04-16T00:15:35.816Z,11.73
2018-04-16T00:16:35.773Z,11.75
2018-04-16T00:17:35.777Z,11.83
2018-04-16T00:18:35.813Z,11.9
2018-04-16T00:19:35.787Z,11.7
2018-04-16T00:20:35.787Z,11.83
2018-04-16T00:21:35.802Z,11.75
2018-04-16T00:22:35.790Z,11.9
2018-04-16T00:23:35.845Z,12.01
2018-04-16T00:24:35.823Z,11.91
2018-04-16T00:25:35.777Z,11.93
2018-04-16T00:26:35.768Z,11.97
2018-04-16T00:27:35.790Z,11.72
2018-04-16T00:28:35.762Z,11.72
2018-04-16T00:29:35.798Z,11.82
2018-04-16T00:30:35.826Z,11.84
2018-04-16T00:31:35.759Z,11.95
2018-04-16T00:32:36.245Z,12.02
2018-04-16T00:33:35.773Z,11.96
2018-04-16T00:34:35.792Z,11.93
2018-04-16T00:35:35.782Z,12
2018-04-16T00:36:35.794Z,11.75
2018-04-16T00:37:35.773Z,11.8
2018-04-16T00:38:35.753Z,11.97
2018-04-16T00:39:35.750Z,11.92
2018-04-16T00:40:35.766Z,11.97
2018-04-16T00:41:35.758Z,11.88
2018-04-16T00:42:35.784Z,11.99
2018-04-16T00:43:35.745Z,11.83
2018-04-16T00:44:35.858Z,11.9
2018-04-16T00:45:35.760Z,11.9
2018-04-16T00:46:35.835Z,11.92
2018-04-16T00:47:35.769Z,11.86
2018-04-16T00:48:35.733Z,11.83
2018-04-16T00:49:35.758Z,11.88
2018-04-16T00:50:35.756Z,11.79
2018-04-16T00:51:35.757Z,11.77
2018-04-16T00:52:35.862Z,11.76
2018-04-16T00:53:35.750Z,11.73
2018-04-16T00:54:35.780Z,11.62
2018-04-16T00:55:35.739Z,11.46
2018-04-16T00:56:35.719Z,11.51
2018-04-16T00:57:35.888Z,11.57
2018-04-16T00:58:35.740Z,11.54
2018-04-16T00:59:35.714Z,11.6
2018-04-16T01:00:35.728Z,11.87
2018-04-16T01:01:35.731Z,11.83
2018-04-16T01:02:35.745Z,11.91
2018-04-16T01:03:35.729Z,11.95
2018-04-16T01:04:35.715Z,11.97
2018-04-16T01:05:35.726Z,11.99
2018-04-16T01:06:35.726Z,11.99
2018-04-16T01:07:35.700Z,11.83
2018-04-16T01:08:35.735Z,11.9
2018-04-16T01:09:35.718Z,11.74
2018-04-16T01:10:35.718Z,11.63
2018-04-16T01:11:35.707Z,11.64
2018-04-16T01:12:35.712Z,11.89
2018-04-16T01:13:35.733Z,11.91
2018-04-16T01:14:35.725Z,11.72
2018-04-16T01:15:35.747Z,11.72
2018-04-16T01:16:35.708Z,11.67
2018-04-16T01:17:35.878Z,11.57
2018-04-16T01:18:35.722Z,11.6
2018-04-16T01:19:35.705Z,11.5
2018-04-16T01:20:35.694Z,11.52
2018-04-16T01:21:35.694Z,11.65
2018-04-16T01:22:35.718Z,11.6
2018-04-16T01:23:35.695Z,11.81
2018-04-16T01:24:35.704Z,11.68
2018-04-16T01:25:35.702Z,11.7
2018-04-16T01:26:35.715Z,11.64
2018-04-16T01:27:35.691Z,11.58
2018-04-16T01:28:35.691Z,11.89
2018-04-16T01:29:35.840Z,11.73
2018-04-16T01:30:35.714Z,11.83
2018-04-16T01:31:35.683Z,11.79
2018-04-16T01:32:35.806Z,11.66
2018-04-16T01:33:35.681Z,11.7
2018-04-16T01:34:35.725Z,11.62
2018-04-16T01:35:35.783Z,11.69
2018-04-16T01:36:35.677Z,11.5
2018-04-16T01:37:35.728Z,11.45
2018-04-16T01:38:35.687Z,11.43
2018-04-16T01:39:35.690Z,11.47
2018-04-16T01:40:35.702Z,11.61
2018-04-16T01:41:35.679Z,11.61
2018-04-16T01:42:35.703Z,11.54
2018-04-16T01:43:35.675Z,11.48
2018-04-16T01:44:35.691Z,11.43
2018-04-16T01:45:35.676Z,11.43
2018-04-16T01:46:35.683Z,11.43
2018-04-16T01:47:35.665Z,11.59
2018-04-16T01:48:35.691Z,11.66
2018-04-16T01:49:35.846Z,11.55
2018-04-16T01:50:35.700Z,11.43
2018-04-16T01:51:35.673Z,11.42
2018-04-16T01:52:35.661Z,11.44
2018-04-16T01:53:35.652Z,11.36
2018-04-16T01:54:35.694Z,11.55
2018-04-16T01:55:35.673Z,11.63
2018-04-16T01:56:35.678Z,11.5
2018-04-16T01:57:35.738Z,11.6
2018-04-16T01:58:35.666Z,11.54
2018-04-16T01:59:35.660Z,11.67
2018-04-16T02:00:35.654Z,11.65
2018-04-16T02:01:35.731Z,11.57
2018-04-16T02:02:35.674Z,11.49
2018-04-16T02:03:35.646Z,11.51
2018-04-16T02:04:35.649Z,11.42
2018-04-16T02:05:35.655Z,11.57
2018-04-16T02:06:35.655Z,11.54
2018-04-16T02:07:35.640Z,11.91
2018-04-16T02:08:35.640Z,11.77
2018-04-16T02:09:35.629Z,11.62
2018-04-16T02:10:35.667Z,11.52
2018-04-16T02:11:35.934Z,11.72
2018-04-16T02:12:35.635Z,11.66
2018-04-16T02:13:35.643Z,11.58
2018-04-16T02:14:35.661Z,11.51
2018-04-16T02:15:35.669Z,11.57
2018-04-16T02:16:35.674Z,11.51
2018-04-16T02:17:35.635Z,11.45
2018-04-16T02:18:35.621Z,11.47
2018-04-16T02:19:35.643Z,11.44
2018-04-16T02:20:35.615Z,11.45
2018-04-16T02:21:35.604Z,11.46
2018-04-16T02:22:35.669Z,11.47
2018-04-16T02:23:35.687Z,11.48
2018-04-16T02:24:35.605Z,11.4
2018-04-16T02:25:35.632Z,11.36
2018-04-16T02:26:35.631Z,11.41
2018-04-16T02:27:35.680Z,11.36
2018-04-16T02:28:35.631Z,11.31
2018-04-16T02:29:35.604Z,11.33
2018-04-16T02:30:35.683Z,11.47
2018-04-16T02:31:35.674Z,11.3
2018-04-16T02:32:35.630Z,11.31
2018-04-16T02:33:35.609Z,11.4
2018-04-16T02:34:35.601Z,11.38
2018-04-16T02:35:35.832Z,11.38
2018-04-16T02:36:35.648Z,11.41
2018-04-16T02:37:35.612Z,11.41
2018-04-16T02:38:35.636Z,11.49
2018-04-16T02:39:35.617Z,11.39
2018-04-16T02:40:35.657Z,11.46
2018-04-16T02:41:35.612Z,11.5
2018-04-16T02:42:35.598Z,11.46
2018-04-16T02:43:35.597Z,11.45
2018-04-16T02:44:35.632Z,11.53
2018-04-16T02:45:35.573Z,11.49
2018-04-16T02:46:35.712Z,11.58
2018-04-16T02:47:35.601Z,11.49
2018-04-16T02:48:35.587Z,11.43
2018-04-16T02:49:35.617Z,11.59
2018-04-16T02:50:35.615Z,11.38
2018-04-16T02:51:35.585Z,11.39
2018-04-16T02:52:35.580Z,11.55
2018-04-16T02:53:35.583Z,11.53
2018-04-16T02:54:35.566Z,11.57
2018-04-16T02:55:35.604Z,11.53
2018-04-16T02:56:35.579Z,11.42
2018-04-16T02:57:35.571Z,11.37
2018-04-16T02:58:35.571Z,11.41
2018-04-16T02:59:35.606Z,11.5
2018-04-16T03:00:35.605Z,11.59
2018-04-16T03:01:35.589Z,11.57
2018-04-16T03:02:35.588Z,11.58
2018-04-16T03:03:35.576Z,11.5
2018-04-16T03:04:35.640Z,11.58
2018-04-16T03:05:35.586Z,11.58
2018-04-16T03:06:35.574Z,11.58
2018-04-16T03:07:35.595Z,11.49
2018-04-16T03:08:35.570Z,11.43
2018-04-16T03:09:35.563Z,11.57
2018-04-16T03:10:35.560Z,11.44
2018-04-16T03:11:35.593Z,11.59
2018-04-16T03:12:35.995Z,11.45
2018-04-16T03:13:35.629Z,11.43
2018-04-16T03:14:35.596Z,11.5
2018-04-16T03:15:35.561Z,11.5
2018-04-16T03:16:35.557Z,11.47
2018-04-16T03:17:35.595Z,11.48
2018-04-16T03:18:35.573Z,11.51
2018-04-16T03:19:35.577Z,11.43
2018-04-16T03:20:35.563Z,11.44
2018-04-16T03:21:35.533Z,11.38
2018-04-16T03:22:35.569Z,11.4
2018-04-16T03:23:35.525Z,11.4
2018-04-16T03:24:35.568Z,11.54
2018-04-16T03:25:35.760Z,11.54
2018-04-16T03:26:35.546Z,11.43
2018-04-16T03:27:35.545Z,11.63
2018-04-16T03:28:35.530Z,11.51
2018-04-16T03:29:35.522Z,11.6
2018-04-16T03:30:35.576Z,11.5
2018-04-16T03:31:35.623Z,11.48
2018-04-16T03:32:35.632Z,11.42
2018-04-16T03:33:35.543Z,11.47
2018-04-16T03:34:35.523Z,11.49
2018-04-16T03:35:35.647Z,11.45
2018-04-16T03:36:35.553Z,11.46
2018-04-16T03:37:35.600Z,11.54
2018-04-16T03:38:35.514Z,11.72
2018-04-16T03:39:35.532Z,11.5
2018-04-16T03:40:35.517Z,11.57
2018-04-16T03:41:35.524Z,11.68
2018-04-16T03:42:35.565Z,11.52
2018-04-16T03:43:35.542Z,11.45
2018-04-16T03:44:35.684Z,11.41
2018-04-16T03:45:35.502Z,11.4
2018-04-16T03:46:35.529Z,11.44
2018-04-16T03:47:35.520Z,11.39
2018-04-16T03:48:35.495Z,11.41
2018-04-16T03:49:35.517Z,11.53
2018-04-16T03:50:35.553Z,11.44
2018-04-16T03:51:35.510Z,11.45
2018-04-16T03:52:35.510Z,11.55
2018-04-16T03:53:35.516Z,11.56
2018-04-16T03:54:35.488Z,11.51
2018-04-16T03:55:35.495Z,11.58
2018-04-16T03:56:35.506Z,11.54
2018-04-16T03:57:35.562Z,11.59
2018-04-16T03:58:35.575Z,11.62
2018-04-16T03:59:35.501Z,11.53
2018-04-16T04:00:35.479Z,11.44
2018-04-16T04:01:35.496Z,11.44
2018-04-16T04:02:35.465Z,11.4
2018-04-16T04:03:35.464Z,11.46
2018-04-16T04:04:35.471Z,11.5
2018-04-16T04:05:35.473Z,11.42
2018-04-16T04:06:35.482Z,11.56
2018-04-16T04:07:35.512Z,11.47
2018-04-16T04:08:35.449Z,11.51
2018-04-16T04:09:35.462Z,11.52
2018-04-16T04:10:35.489Z,11.56
2018-04-16T04:11:35.526Z,11.49
2018-04-16T04:12:35.477Z,11.38
2018-04-16T04:13:35.453Z,11.35
2018-04-16T04:14:35.465Z,11.48
2018-04-16T04:15:35.457Z,11.34
2018-04-16T04:16:35.461Z,11.4
2018-04-16T04:17:35.520Z,11.34
2018-04-16T04:18:35.497Z,11.38
2018-04-16T04:19:35.502Z,11.3
2018-04-16T04:20:35.525Z,11.25
2018-04-16T04:21:35.457Z,11.27
2018-04-16T04:22:35.451Z,11.3
2018-04-16T04:23:35.445Z,11.38
2018-04-16T04:24:35.432Z,11.3
2018-04-16T04:25:35.454Z,11.23
2018-04-16T04:26:35.418Z,11.17
2018-04-16T04:27:35.464Z,11.34
2018-04-16T04:28:35.456Z,11.28
2018-04-16T04:29:35.423Z,11.31
2018-04-16T04:30:35.431Z,11.25
2018-04-16T04:31:35.420Z,11.29
2018-04-16T04:32:35.441Z,11.24
2018-04-16T04:33:35.457Z,11.15
2018-04-16T04:34:35.479Z,11.19
2018-04-16T04:35:35.446Z,11.23
2018-04-16T04:36:35.445Z,11.21
2018-04-16T04:37:35.550Z,11.2
2018-04-16T04:38:35.492Z,11.22
2018-04-16T04:39:35.425Z,11.13
2018-04-16T04:40:35.465Z,11.4
2018-04-16T04:41:35.404Z,11.18
2018-04-16T04:42:35.415Z,11.19
2018-04-16T04:43:35.561Z,11.15
2018-04-16T04:44:35.421Z,11.2
2018-04-16T04:45:35.483Z,11.18
2018-04-16T04:46:35.415Z,11.19
2018-04-16T04:47:35.412Z,11.26
2018-04-16T04:48:35.625Z,11.38
2018-04-16T04:49:35.421Z,11.2
2018-04-16T04:50:35.417Z,11.18
2018-04-16T04:51:35.423Z,11.15
2018-04-16T04:52:35.424Z,11.09
2018-04-16T04:53:35.424Z,11.13
2018-04-16T04:54:35.456Z,11.16
2018-04-16T04:55:35.464Z,11.16
2018-04-16T04:56:35.381Z,11.04
2018-04-16T04:57:35.411Z,11.39
2018-04-16T04:58:35.413Z,11.26
2018-04-16T04:59:35.403Z,11.31
2018-04-16T05:00:35.455Z,11.33
2018-04-16T05:01:35.407Z,11.18
2018-04-16T05:02:35.408Z,11.18
2018-04-16T05:03:35.449Z,11.19
2018-04-16T05:04:35.384Z,11.15
2018-04-16T05:05:35.440Z,11.27
2018-04-16T05:06:35.715Z,11.28
2018-04-16T05:07:35.383Z,11.26
2018-04-16T05:08:35.412Z,11.04
2018-04-16T05:09:35.397Z,11.25
2018-04-16T05:10:35.407Z,11.16
2018-04-16T05:11:35.386Z,11.02
2018-04-16T05:12:35.421Z,11.07
2018-04-16T05:13:35.427Z,11.06
2018-04-16T05:14:35.394Z,11.03
2018-04-16T05:15:35.384Z,11.02
2018-04-16T05:16:35.369Z,11.03
2018-04-16T05:17:35.377Z,11.13
2018-04-16T05:18:35.375Z,10.96
2018-04-16T05:19:35.434Z,11.06
2018-04-16T05:20:35.366Z,11.16
2018-04-16T05:21:35.366Z,11.14
2018-04-16T05:22:35.358Z,11.13
2018-04-16T05:23:35.594Z,10.97
2018-04-16T05:24:35.366Z,11.02
2018-04-16T05:25:35.393Z,10.88
2018-04-16T05:26:35.347Z,10.95
2018-04-16T05:27:35.359Z,10.88
2018-04-16T05:28:35.475Z,10.83
2018-04-16T05:29:35.350Z,10.99
2018-04-16T05:30:35.365Z,10.94
2018-04-16T05:31:35.368Z,10.92
2018-04-16T05:32:35.573Z,10.9
2018-04-16T05:33:35.520Z,10.97
2018-04-16T05:34:35.526Z,10.97
2018-04-16T05:35:35.359Z,10.89
2018-04-16T05:36:35.469Z,10.85
2018-04-16T05:37:35.348Z,10.9
2018-04-16T05:38:35.392Z,10.82
2018-04-16T05:39:35.432Z,10.91
2018-04-16T05:40:35.329Z,10.95
2018-04-16T05:41:35.338Z,10.87
2018-04-16T05:42:35.329Z,10.91
2018-04-16T05:43:35.315Z,10.95
2018-04-16T05:44:35.357Z,10.92
2018-04-16T05:45:35.380Z,10.91
2018-04-16T05:46:35.322Z,11.04
2018-04-16T05:47:35.366Z,11.08
2018-04-16T05:48:35.322Z,11.02
2018-04-16T05:49:35.367Z,10.94
2018-04-16T05:50:35.334Z,10.84
2018-04-16T05:51:35.330Z,10.96
2018-04-16T05:52:35.315Z,10.88
2018-04-16T05:53:35.306Z,10.88
2018-04-16T05:54:35.351Z,11.03
2018-04-16T05:55:35.321Z,10.93
2018-04-16T05:56:35.314Z,11
2018-04-16T05:57:35.309Z,10.98
2018-04-16T05:58:35.372Z,11.05
2018-04-16T05:59:35.357Z,11.05
2018-04-16T06:00:35.342Z,11.08
2018-04-16T06:01:35.294Z,11.07
2018-04-16T06:02:35.382Z,11.09
2018-04-16T06:03:35.298Z,11.34
2018-04-16T06:04:35.359Z,11.32
2018-04-16T06:05:35.309Z,11.35
2018-04-16T06:06:35.533Z,11.29
2018-04-16T06:07:35.334Z,11.36
2018-04-16T06:08:35.297Z,11.24
2018-04-16T06:09:35.436Z,11.37
2018-04-16T06:10:35.327Z,11.38
2018-04-16T06:11:35.427Z,11.29
2018-04-16T06:12:35.306Z,11.42
2018-04-16T06:13:35.511Z,11.57
2018-04-16T06:14:35.337Z,11.49
2018-04-16T06:15:35.305Z,11.55
2018-04-16T06:16:35.330Z,11.55
2018-04-16T06:17:35.316Z,11.52
2018-04-16T06:18:35.302Z,11.56
2018-04-16T06:19:35.267Z,11.58
2018-04-16T06:20:35.449Z,11.6
2018-04-16T06:21:35.287Z,11.69
2018-04-16T06:22:35.312Z,11.59
2018-04-16T06:23:35.313Z,11.57
2018-04-16T06:24:35.267Z,11.61
2018-04-16T06:25:35.300Z,11.63
2018-04-16T06:26:35.260Z,11.66
2018-04-16T06:27:35.264Z,11.69
2018-04-16T06:28:35.301Z,11.71
2018-04-16T06:29:35.254Z,11.7
2018-04-16T06:30:35.334Z,11.67
2018-04-16T06:31:35.241Z,11.76
2018-04-16T06:32:35.286Z,11.77
2018-04-16T06:33:35.425Z,11.77
2018-04-16T06:34:35.295Z,11.75
2018-04-16T06:35:35.532Z,11.7
2018-04-16T06:36:35.292Z,11.67
2018-04-16T06:37:35.280Z,11.76
2018-04-16T06:38:35.279Z,11.76
2018-04-16T06:39:35.260Z,11.72
2018-04-16T06:40:35.294Z,11.72
2018-04-16T06:41:35.287Z,11.74
2018-04-16T06:42:35.270Z,11.71
2018-04-16T06:43:35.283Z,11.69
2018-04-16T06:44:35.293Z,11.77
2018-04-16T06:45:35.333Z,11.68
2018-04-16T06:46:35.269Z,11.75
2018-04-16T06:47:35.226Z,11.77
2018-04-16T06:48:35.268Z,11.71
2018-04-16T06:49:35.228Z,11.69
2018-04-16T06:50:35.324Z,11.8
2018-04-16T06:51:35.237Z,11.83
2018-04-16T06:52:35.242Z,11.72
2018-04-16T06:53:35.242Z,11.72
2018-04-16T06:54:35.265Z,11.8
2018-04-16T06:55:35.259Z,11.77
2018-04-16T06:56:35.246Z,11.74
2018-04-16T06:57:35.222Z,11.77
2018-04-16T06:58:35.255Z,11.83
2018-04-16T06:59:35.265Z,11.96
2018-04-16T07:00:35.303Z,11.86
2018-04-16T07:01:35.240Z,11.87
2018-04-16T07:02:35.231Z,11.85
2018-04-16T07:03:35.228Z,11.88
2018-04-16T07:04:35.234Z,11.84
2018-04-16T07:05:35.276Z,11.89
2018-04-16T07:06:35.229Z,11.91
2018-04-16T07:07:35.217Z,11.9
2018-04-16T07:08:35.219Z,11.91
2018-04-16T07:09:35.226Z,11.85
2018-04-16T07:10:35.256Z,11.88
2018-04-16T07:11:35.291Z,11.77
2018-04-16T07:12:35.211Z,11.81
2018-04-16T07:13:35.208Z,11.93
2018-04-16T07:14:35.224Z,11.9
2018-04-16T07:15:35.203Z,11.9
2018-04-16T07:16:35.207Z,11.92
2018-04-16T07:17:35.234Z,11.88
2018-04-16T07:18:35.196Z,11.81
2018-04-16T07:19:35.264Z,11.91
2018-04-16T07:20:35.202Z,11.75
2018-04-16T07:21:35.352Z,11.77
2018-04-16T07:22:35.187Z,11.79
2018-04-16T07:23:35.191Z,11.88
2018-04-16T07:24:35.188Z,11.65
2018-04-16T07:25:35.186Z,11.55
2018-04-16T07:26:35.285Z,11.67
2018-04-16T07:27:35.246Z,11.7
2018-04-16T07:28:35.161Z,11.94
2018-04-16T07:29:35.177Z,11.88
2018-04-16T07:30:35.219Z,11.87
2018-04-16T07:31:35.179Z,11.9
2018-04-16T07:32:35.157Z,11.91
2018-04-16T07:33:35.434Z,11.89
2018-04-16T07:34:35.277Z,11.87
2018-04-16T07:35:35.254Z,11.79
2018-04-16T07:36:35.164Z,11.93
2018-04-16T07:37:35.272Z,11.89
2018-04-16T07:38:35.203Z,11.96
2018-04-16T07:39:35.174Z,12.05
2018-04-16T07:40:35.166Z,12.04
2018-04-16T07:41:35.145Z,11.87
2018-04-16T07:42:35.212Z,11.96
2018-04-16T07:43:35.156Z,11.81
2018-04-16T07:44:35.167Z,11.79
2018-04-16T07:45:35.281Z,12.05
2018-04-16T07:46:35.152Z,11.99
2018-04-16T07:47:35.141Z,12.1
2018-04-16T07:48:35.151Z,11.83
2018-04-16T07:49:35.148Z,11.88
2018-04-16T07:50:35.171Z,11.78
2018-04-16T07:51:35.141Z,11.81
2018-04-16T07:52:35.168Z,11.94
2018-04-16T07:53:35.140Z,11.93
2018-04-16T07:54:35.147Z,11.9
2018-04-16T07:55:35.296Z,11.92
2018-04-16T07:56:35.206Z,12
2018-04-16T07:57:35.189Z,11.82
2018-04-16T07:58:35.156Z,11.78
2018-04-16T07:59:35.182Z,11.79
2018-04-16T08:00:35.164Z,11.96
2018-04-16T08:01:35.119Z,12.04
2018-04-16T08:02:35.145Z,12.05
2018-04-16T08:03:35.113Z,11.98
2018-04-16T08:04:35.147Z,11.91
2018-04-16T08:05:35.131Z,11.82
2018-04-16T08:06:35.286Z,11.73
2018-04-16T08:07:35.133Z,11.48
2018-04-16T08:08:35.140Z,11.49
2018-04-16T08:09:35.136Z,11.72
2018-04-16T08:10:35.134Z,11.5
2018-04-16T08:11:35.100Z,11.55
2018-04-16T08:12:35.297Z,11.66
2018-04-16T08:13:35.103Z,11.72
2018-04-16T08:14:35.112Z,11.84
2018-04-16T08:15:35.128Z,11.62
2018-04-16T08:16:35.293Z,11.55
2018-04-16T08:17:35.175Z,11.45
2018-04-16T08:18:35.133Z,11.16
2018-04-16T08:19:35.121Z,11.25
2018-04-16T08:20:35.104Z,11.25
2018-04-16T08:21:35.123Z,11.39
2018-04-16T08:22:35.131Z,11.49
2018-04-16T08:23:35.152Z,11.46
2018-04-16T08:24:35.109Z,11.42
2018-04-16T08:25:35.121Z,11.38
2018-04-16T08:26:35.115Z,11.3
2018-04-16T08:27:35.276Z,10.49
2018-04-16T08:28:35.158Z,10.76
2018-04-16T08:29:35.118Z,11.08
2018-04-16T08:30:35.226Z,11.3
2018-04-16T08:31:35.098Z,11.35
2018-04-16T08:32:35.133Z,11.18
2018-04-16T08:33:35.082Z,11.37
2018-04-16T08:34:35.085Z,11.01
2018-04-16T08:35:35.091Z,10.21
2018-04-16T08:36:35.091Z,9.92
2018-04-16T08:37:35.193Z,9.61
2018-04-16T08:38:35.140Z,9.75
2018-04-16T08:39:35.124Z,10.28
2018-04-16T08:40:35.118Z,10.44
2018-04-16T08:41:35.103Z,10.25
2018-04-16T08:42:35.162Z,10.21
2018-04-16T08:43:35.065Z,9.76
2018-04-16T08:44:35.107Z,9.54
2018-04-16T08:45:35.111Z,9.62
2018-04-16T08:46:35.129Z,9.79
2018-04-16T08:47:35.093Z,9.97
2018-04-16T08:48:35.076Z,9.69
2018-04-16T08:49:35.123Z,9.9
2018-04-16T08:50:35.070Z,9.96
2018-04-16T08:51:35.079Z,10.22
2018-04-16T08:52:35.331Z,10.35
2018-04-16T08:53:35.082Z,10.21
2018-04-16T08:54:35.056Z,9.84
2018-04-16T08:55:35.065Z,10.02
2018-04-16T08:56:35.029Z,10.22
2018-04-16T08:57:35.239Z,10.45
2018-04-16T08:58:35.026Z,9.96
2018-04-16T08:59:35.242Z,9.88
2018-04-16T09:00:35.469Z,9.98
2018-04-16T09:01:35.041Z,9.91
2018-04-16T09:02:35.105Z,9.59
2018-04-16T09:03:35.068Z,9.33
2018-04-16T09:04:35.041Z,9.04
2018-04-16T09:05:35.038Z,9.25
2018-04-16T09:06:35.037Z,8.78
2018-04-16T09:07:35.060Z,8.51
2018-04-16T09:08:35.065Z,8.5
2018-04-16T09:09:35.043Z,8.65
2018-04-16T09:10:35.042Z,8.26
2018-04-16T09:11:35.039Z,8.48
2018-04-16T09:12:35.036Z,8.49
2018-04-16T09:13:35.029Z,8.44
2018-04-16T09:14:35.017Z,8.7
2018-04-16T09:15:35.016Z,8.9
2018-04-16T09:16:35.015Z,8.58
2018-04-16T09:17:35.119Z,8.69
2018-04-16T09:18:35.027Z,8.4
2018-04-16T09:19:35.124Z,8.48
2018-04-16T09:20:35.143Z,8.64
2018-04-16T09:21:35.006Z,8.62
2018-04-16T09:22:35.060Z,8.55
2018-04-16T09:23:35.018Z,8.78
2018-04-16T09:24:35.002Z,8.64
2018-04-16T09:25:35.017Z,8.42
2018-04-16T09:26:35.054Z,8.01
2018-04-16T09:27:35.283Z,8.13
2018-04-16T09:28:35.053Z,8.41
2018-04-16T09:29:35.051Z,7.81
2018-04-16T09:30:35.003Z,8
2018-04-16T09:31:35.017Z,7.98
2018-04-16T09:32:35.055Z,8.03
2018-04-16T09:33:35.040Z,7.77
2018-04-16T09:34:35.092Z,7.99
2018-04-16T09:35:35.051Z,7.98
2018-04-16T09:36:35.110Z,8.46
2018-04-16T09:37:35.235Z,8.5
2018-04-16T09:38:35.118Z,8.78
2018-04-16T09:39:35.339Z,8.41
2018-04-16T09:40:35.033Z,8.83
2018-04-16T09:41:34.983Z,9.05
2018-04-16T09:42:35.159Z,9.12
2018-04-16T09:43:35.261Z,8.93
2018-04-16T09:44:35.069Z,8.78
2018-04-16T09:45:35.109Z,8.49
2018-04-16T09:46:35.097Z,8.49
2018-04-16T09:47:34.992Z,8.44
2018-04-16T09:48:35.005Z,8.81
2018-04-16T09:49:35.033Z,8.52
2018-04-16T09:50:35.067Z,8.3
2018-04-16T09:51:34.983Z,8.41
2018-04-16T09:52:34.957Z,8.84
2018-04-16T09:53:35.013Z,8.64
2018-04-16T09:54:34.989Z,8.96
2018-04-16T09:55:35.170Z,8.83
2018-04-16T09:56:35.137Z,8.52
2018-04-16T09:57:35.164Z,8.67
2018-04-16T09:58:35.000Z,8.98
2018-04-16T09:59:35.054Z,8.12
2018-04-16T10:00:35.102Z,8.06
2018-04-16T10:01:35.075Z,7.91
2018-04-16T10:02:34.985Z,8.06
2018-04-16T10:03:34.985Z,7.95
2018-04-16T10:04:34.948Z,7.8
2018-04-16T10:05:34.940Z,7.81
2018-04-16T10:06:34.986Z,7.73
2018-04-16T10:07:34.941Z,7.87
2018-04-16T10:08:35.024Z,7.99
2018-04-16T10:09:34.935Z,7.68
2018-04-16T10:10:34.965Z,8.24
2018-04-16T10:11:34.925Z,8.34
2018-04-16T10:12:35.048Z,8.41
2018-04-16T10:13:34.964Z,8.08
2018-04-16T10:14:34.943Z,8.26
2018-04-16T10:15:34.945Z,8.27
2018-04-16T10:16:35.001Z,7.97
2018-04-16T10:17:34.930Z,8.03
2018-04-16T10:18:34.948Z,7.86
2018-04-16T10:19:34.936Z,7.85
2018-04-16T10:20:34.935Z,7.35
2018-04-16T10:21:35.008Z,7.17
2018-04-16T10:22:35.008Z,7.38
2018-04-16T10:23:34.985Z,7.15
2018-04-16T10:24:34.972Z,7.44
2018-04-16T10:25:34.968Z,6.83
2018-04-16T10:26:35.083Z,7.32
2018-04-16T10:27:35.162Z,7.07
2018-04-16T10:28:35.078Z,7.16
2018-04-16T10:29:34.989Z,7.43
2018-04-16T10:30:34.914Z,7.71
2018-04-16T10:31:34.953Z,7.21
2018-04-16T10:32:34.986Z,6.95
2018-04-16T10:33:35.131Z,6.85
2018-04-16T10:34:35.010Z,6.86
2018-04-16T10:35:34.997Z,6.63
2018-04-16T10:36:34.922Z,6.64
2018-04-16T10:37:34.925Z,6.67
2018-04-16T10:38:34.956Z,6.63
2018-04-16T10:39:35.149Z,7.04
2018-04-16T10:40:34.924Z,7.22
2018-04-16T10:41:34.921Z,7.4
2018-04-16T10:42:34.938Z,7.52
2018-04-16T10:43:35.044Z,7.74
2018-04-16T10:44:34.971Z,7.94
2018-04-16T10:45:34.902Z,7.05
2018-04-16T10:46:34.964Z,7.24
2018-04-16T10:47:35.121Z,7.09
2018-04-16T10:48:34.933Z,6.99
2018-04-16T10:49:34.927Z,6.82
2018-04-16T10:50:34.945Z,6.85
2018-04-16T10:51:34.999Z,6.99
2018-04-16T10:52:34.893Z,7.2
2018-04-16T10:53:34.902Z,7.23
2018-04-16T10:54:35.053Z,5.33
2018-04-16T10:55:35.164Z,5.55
2018-04-16T10:56:34.885Z,5.65
2018-04-16T10:57:35.048Z,6.34
2018-04-16T10:58:35.003Z,6.76
2018-04-16T10:59:34.908Z,6.51
2018-04-16T11:00:34.927Z,6.63
2018-04-16T11:01:35.045Z,6.49
2018-04-16T11:02:34.926Z,6.63
2018-04-16T11:03:34.882Z,6.92
2018-04-16T11:04:35.059Z,6.82
2018-04-16T11:05:34.872Z,5.74
2018-04-16T11:06:34.865Z,5.97
2018-04-16T11:07:34.890Z,6.28
2018-04-16T11:08:35.049Z,6.86
2018-04-16T11:09:34.880Z,6.74
2018-04-16T11:10:34.929Z,6.58
2018-04-16T11:11:34.872Z,6.35
2018-04-16T11:12:34.899Z,6.39
2018-04-16T11:13:34.867Z,6.6
2018-04-16T11:14:34.901Z,6.59
2018-04-16T11:15:34.883Z,6.28
2018-04-16T11:16:34.880Z,6.07
2018-04-16T11:17:34.868Z,6.62
2018-04-16T11:18:34.955Z,6.81
2018-04-16T11:19:34.883Z,6.06
2018-04-16T11:20:34.872Z,5.73
2018-04-16T11:21:34.894Z,5.88
2018-04-16T11:22:34.897Z,5.31
2018-04-16T11:23:34.865Z,5.41
2018-04-16T11:24:34.930Z,5.83
2018-04-16T11:25:34.887Z,5.81
2018-04-16T11:26:34.850Z,6.17
2018-04-16T11:27:34.861Z,6.3
2018-04-16T11:28:35.069Z,6.51
2018-04-16T11:29:34.894Z,5.95
2018-04-16T11:30:34.875Z,6.61
2018-04-16T11:31:34.858Z,6.48
2018-04-16T11:32:34.856Z,6.37
2018-04-16T11:33:34.918Z,6.64
2018-04-16T11:34:34.892Z,6.44
2018-04-16T11:35:34.965Z,6.45
2018-04-16T11:36:34.885Z,6.57
2018-04-16T11:37:34.817Z,6.24
2018-04-16T11:38:34.818Z,6.31
2018-04-16T11:39:34.932Z,6.4
2018-04-16T11:40:34.821Z,6.36
2018-04-16T11:41:35.076Z,6.35
2018-04-16T11:42:34.814Z,6.58
2018-04-16T11:43:34.864Z,6.48
2018-04-16T11:44:34.813Z,6.63
2018-04-16T11:45:35.043Z,6.53
2018-04-16T11:46:34.825Z,6.54
2018-04-16T11:47:35.151Z,6.51
2018-04-16T11:48:35.452Z,6.19
2018-04-16T11:49:34.949Z,6.68
2018-04-16T11:50:34.905Z,6.58
2018-04-16T11:51:34.821Z,6.58
2018-04-16T11:52:34.844Z,6.59
2018-04-16T11:53:34.802Z,6.66
2018-04-16T11:54:34.853Z,6.58
2018-04-16T11:55:34.825Z,6.54
2018-04-16T11:56:34.789Z,6.37
2018-04-16T11:57:35.190Z,6.56
2018-04-16T11:58:34.831Z,7.11
2018-04-16T11:59:34.784Z,6.99
2018-04-16T12:00:34.803Z,6.81
2018-04-16T12:01:34.812Z,6.85
2018-04-16T12:02:34.801Z,6.89
2018-04-16T12:03:34.787Z,7.21
2018-04-16T12:04:35.342Z,7.08
2018-04-16T12:05:34.819Z,6.87
2018-04-16T12:06:34.959Z,7.28
2018-04-16T12:07:34.763Z,7.17
2018-04-16T12:08:34.908Z,6.97
2018-04-16T12:09:34.840Z,7.2
2018-04-16T12:10:34.829Z,7.08
2018-04-16T12:11:34.881Z,7.15
2018-04-16T12:12:34.810Z,7.1
2018-04-16T12:13:34.772Z,7.34
2018-04-16T12:14:34.773Z,7.52
2018-04-16T12:15:34.757Z,7.38
2018-04-16T12:16:35.055Z,7.79
2018-04-16T12:17:34.758Z,7.64
2018-04-16T12:18:34.763Z,7.77
2018-04-16T12:19:34.774Z,7.79
2018-04-16T12:20:34.787Z,7.5
2018-04-16T12:21:34.776Z,7.9
2018-04-16T12:22:34.769Z,7.65
2018-04-16T12:23:34.934Z,7.43
2018-04-16T12:24:34.875Z,7.4
2018-04-16T12:25:34.800Z,7.55
2018-04-16T12:26:34.835Z,7.93
2018-04-16T12:27:34.775Z,7.95
2018-04-16T12:28:34.765Z,8
2018-04-16T12:29:34.880Z,8.02
2018-04-16T12:30:34.833Z,8.19
2018-04-16T12:31:34.867Z,7.98
2018-04-16T12:32:34.741Z,7.94
2018-04-16T12:33:34.757Z,8.49
2018-04-16T12:34:34.787Z,8.39
2018-04-16T12:35:34.780Z,8.55
2018-04-16T12:36:34.782Z,8.13
2018-04-16T12:37:34.778Z,7.99
2018-04-16T12:38:34.803Z,7.96
2018-04-16T12:39:34.747Z,7.79
2018-04-16T12:40:34.816Z,8.02
2018-04-16T12:41:35.000Z,8.29
2018-04-16T12:42:34.955Z,8.18
2018-04-16T12:43:34.739Z,7.76
2018-04-16T12:44:34.764Z,7.9
2018-04-16T12:45:34.809Z,7.99
2018-04-16T12:46:34.744Z,7.47
2018-04-16T12:47:34.926Z,7.29
2018-04-16T12:48:34.746Z,7.3
2018-04-16T12:49:34.808Z,7.51
2018-04-16T12:50:34.717Z,7.24
2018-04-16T12:51:34.766Z,7.69
2018-04-16T12:52:34.711Z,7.66
2018-04-16T12:53:34.824Z,7.74
2018-04-16T12:54:34.732Z,7.68
2018-04-16T12:55:34.738Z,7.77
2018-04-16T12:56:34.790Z,8.14
2018-04-16T12:57:34.848Z,7.97
2018-04-16T12:58:34.752Z,7.91
2018-04-16T12:59:34.739Z,7.93
2018-04-16T13:00:34.767Z,7.97
2018-04-16T13:01:34.714Z,8.15
2018-04-16T13:02:34.713Z,7.86
2018-04-16T13:03:34.813Z,8.17
2018-04-16T13:04:34.725Z,8.23
2018-04-16T13:05:34.713Z,8.14